createdAt,value
2017-08-16T00:00:16.000Z,62.60
2017-08-16T00:02:16.949Z,62.60
2017-08-16T00:04:18.120Z,62.00
2017-08-16T00:06:19.800Z,62.70
2017-08-16T00:08:20.776Z,62.60
2017-08-16T00:10:21.728Z,63.00
2017-08-16T00:12:22.677Z,62.20
2017-08-16T00:14:23.617Z,62.30
2017-08-16T00:16:25.299Z,61.30
2017-08-16T00:18:26.524Z,61.30
2017-08-16T00:20:27.508Z,62.60
2017-08-16T00:22:28.456Z,62.60
2017-08-16T00:24:29.404Z,61.50
2017-08-16T00:26:30.401Z,62.60
2017-08-16T00:28:31.349Z,63.20
2017-08-16T00:30:32.330Z,63.30
2017-08-16T00:32:34.019Z,62.50
2017-08-16T00:34:34.948Z,62.50
2017-08-16T00:36:35.884Z,63.10
2017-08-16T00:38:36.832Z,63.60
2017-08-16T00:40:37.789Z,64.50
2017-08-16T00:42:38.758Z,64.60
2017-08-16T00:44:40.449Z,64.30
2017-08-16T00:46:41.421Z,64.30
2017-08-16T00:48:42.664Z,65.70
2017-08-16T00:50:43.609Z,65.00
2017-08-16T00:52:44.572Z,65.30
2017-08-16T00:54:45.504Z,64.90
2017-08-16T00:56:46.436Z,64.80
2017-08-16T00:58:48.132Z,65.30
2017-08-16T01:00:49.133Z,65.30
2017-08-16T01:02:50.080Z,65.50
2017-08-16T01:04:51.020Z,65.60
2017-08-16T01:06:51.965Z,66.00
2017-08-16T01:08:52.909Z,65.80
2017-08-16T01:10:53.860Z,66.20
2017-08-16T01:12:54.814Z,66.20
2017-08-16T01:14:55.775Z,65.80
2017-08-16T01:16:57.444Z,66.10
2017-08-16T01:18:58.481Z,66.10
2017-08-16T01:20:59.531Z,66.80
2017-08-16T01:23:00.473Z,66.80
2017-08-16T01:25:01.436Z,66.10
2017-08-16T01:27:02.383Z,66.50
2017-08-16T01:29:04.070Z,66.80
2017-08-16T01:31:05.024Z,66.10
2017-08-16T01:33:05.961Z,66.50
2017-08-16T01:35:07.036Z,66.10
2017-08-16T01:37:07.996Z,66.30
2017-08-16T01:39:09.679Z,66.10
2017-08-16T01:41:10.648Z,66.10
2017-08-16T01:43:11.593Z,66.60
2017-08-16T01:45:12.544Z,66.60
2017-08-16T01:47:14.240Z,67.60
2017-08-16T01:49:15.181Z,67.30
2017-08-16T01:51:16.132Z,67.00
2017-08-16T01:53:17.064Z,66.90
2017-08-16T01:55:17.993Z,67.20
2017-08-16T01:57:18.968Z,67.40
2017-08-16T01:59:19.913Z,67.40
2017-08-16T02:01:21.609Z,67.50
2017-08-16T02:03:22.549Z,67.40
2017-08-16T02:05:23.521Z,67.40
2017-08-16T02:07:24.465Z,67.30
2017-08-16T02:09:25.420Z,67.30
2017-08-16T02:11:26.380Z,67.40
2017-08-16T02:13:27.317Z,67.50
2017-08-16T02:15:28.285Z,67.70
2017-08-16T02:17:29.216Z,67.80
2017-08-16T02:19:30.181Z,68.00
2017-08-16T02:21:31.128Z,68.30
2017-08-16T02:23:32.082Z,68.60
2017-08-16T02:25:33.048Z,68.40
2017-08-16T02:27:33.992Z,68.10
2017-08-16T02:29:34.936Z,68.30
2017-08-16T02:31:35.877Z,68.20
2017-08-16T02:33:36.833Z,68.60
2017-08-16T02:35:37.788Z,68.40
2017-08-16T02:37:38.747Z,68.70
2017-08-16T02:39:39.703Z,68.40
2017-08-16T02:41:40.652Z,69.00
2017-08-16T02:43:41.582Z,68.90
2017-08-16T02:45:42.517Z,69.10
2017-08-16T02:47:43.464Z,69.20
2017-08-16T02:49:44.417Z,69.40
2017-08-16T02:51:46.132Z,69.80
2017-08-16T02:53:47.077Z,69.80
2017-08-16T02:55:48.029Z,69.70
2017-08-16T02:57:48.980Z,69.80
2017-08-16T02:59:50.676Z,70.90
2017-08-16T03:01:51.611Z,70.30
2017-08-16T03:03:52.568Z,70.10
2017-08-16T03:05:53.509Z,70.20
2017-08-16T03:07:54.525Z,70.30
2017-08-16T03:09:55.484Z,70.00
2017-08-16T03:11:56.442Z,70.40
2017-08-16T03:13:57.424Z,71.00
2017-08-16T03:15:58.367Z,70.40
2017-08-16T03:17:59.331Z,70.40
2017-08-16T03:20:00.306Z,70.50
2017-08-16T03:22:01.275Z,70.40
2017-08-16T03:24:02.233Z,70.70
2017-08-16T03:26:03.209Z,71.00
2017-08-16T03:28:04.192Z,71.00
2017-08-16T03:30:05.169Z,71.10
2017-08-16T03:32:06.122Z,71.50
2017-08-16T03:34:07.105Z,71.60
2017-08-16T03:36:08.080Z,70.90
2017-08-16T03:38:09.793Z,72.00
2017-08-16T03:40:10.757Z,72.00
2017-08-16T03:42:11.713Z,72.10
2017-08-16T03:44:12.687Z,72.30
2017-08-16T03:46:13.650Z,72.10
2017-08-16T03:48:14.626Z,71.90
2017-08-16T03:50:16.321Z,72.50
2017-08-16T03:52:17.265Z,72.50
2017-08-16T03:54:18.311Z,72.90
2017-08-16T03:56:20.017Z,72.50
2017-08-16T03:58:20.985Z,72.60
2017-08-16T04:00:21.952Z,72.50
2017-08-16T04:02:22.909Z,72.00
2017-08-16T04:04:24.592Z,73.10
2017-08-16T04:06:25.560Z,72.90
2017-08-16T04:08:26.701Z,72.80
2017-08-16T04:10:27.668Z,73.20
2017-08-16T04:12:29.368Z,73.10
2017-08-16T04:14:30.340Z,73.10
2017-08-16T04:16:31.307Z,73.10
2017-08-16T04:18:32.264Z,73.30
2017-08-16T04:20:33.244Z,73.30
2017-08-16T04:22:34.212Z,73.70
2017-08-16T04:24:35.196Z,73.60
2017-08-16T04:26:36.132Z,73.70
2017-08-16T04:28:37.064Z,73.80
2017-08-16T04:30:38.016Z,73.80
2017-08-16T04:32:38.956Z,73.80
2017-08-16T04:34:39.893Z,73.80
2017-08-16T04:36:40.833Z,73.70
2017-08-16T04:38:42.770Z,73.80
2017-08-16T04:40:43.725Z,73.80
2017-08-16T04:42:44.692Z,74.00
2017-08-16T04:44:45.641Z,74.20
2017-08-16T04:46:46.603Z,74.30
2017-08-16T04:48:47.556Z,73.90
2017-08-16T04:50:48.530Z,74.20
2017-08-16T04:52:50.218Z,73.90
2017-08-16T04:54:51.192Z,73.90
2017-08-16T04:56:52.157Z,73.70
2017-08-16T04:58:53.112Z,74.10
2017-08-16T05:00:54.080Z,74.30
2017-08-16T05:02:55.031Z,73.90
2017-08-16T05:04:55.993Z,74.30
2017-08-16T05:06:57.706Z,74.50
2017-08-16T05:08:58.676Z,74.50
2017-08-16T05:11:00.372Z,74.20
2017-08-16T05:13:01.308Z,74.10
2017-08-16T05:15:02.365Z,74.20
2017-08-16T05:17:03.321Z,73.90
2017-08-16T05:19:04.278Z,74.00
2017-08-16T05:21:05.975Z,74.00
2017-08-16T05:23:06.931Z,74.00
2017-08-16T05:25:07.884Z,74.00
2017-08-16T05:27:08.832Z,73.70
2017-08-16T05:29:09.792Z,74.00
2017-08-16T05:31:10.747Z,74.10
2017-08-16T05:33:11.690Z,74.20
2017-08-16T05:35:12.650Z,73.90
2017-08-16T05:37:13.604Z,74.00
2017-08-16T05:39:15.308Z,73.50
2017-08-16T05:41:16.280Z,73.50
2017-08-16T05:43:17.248Z,73.80
2017-08-16T05:45:18.216Z,73.80
2017-08-16T05:47:19.174Z,73.50
2017-08-16T05:49:20.124Z,72.80
2017-08-16T05:51:21.064Z,73.20
2017-08-16T05:53:21.996Z,73.10
2017-08-16T05:55:22.944Z,73.20
2017-08-16T05:57:24.632Z,72.20
2017-08-16T05:59:25.581Z,72.10
2017-08-16T06:01:26.549Z,71.90
2017-08-16T06:03:27.488Z,71.40
2017-08-16T06:05:28.432Z,71.80
2017-08-16T06:07:29.389Z,71.40
2017-08-16T06:09:30.329Z,71.40
2017-08-16T06:11:31.268Z,71.60
2017-08-16T06:13:32.212Z,71.30
2017-08-16T06:15:33.156Z,71.50
2017-08-16T06:17:34.106Z,71.20
2017-08-16T06:19:35.051Z,71.40
2017-08-16T06:21:36.008Z,70.90
2017-08-16T06:23:36.944Z,71.10
2017-08-16T06:25:37.885Z,70.70
2017-08-16T06:27:38.828Z,70.80
2017-08-16T06:29:39.774Z,70.50
2017-08-16T06:31:41.462Z,71.10
2017-08-16T06:33:42.397Z,71.10
2017-08-16T06:35:43.341Z,70.90
2017-08-16T06:37:44.296Z,70.80
2017-08-16T06:39:45.228Z,71.10
2017-08-16T06:41:46.174Z,70.90
2017-08-16T06:43:47.120Z,70.80
2017-08-16T06:45:48.068Z,70.70
2017-08-16T06:47:49.012Z,70.50
2017-08-16T06:49:49.949Z,70.00
2017-08-16T06:51:50.898Z,70.00
2017-08-16T06:53:51.854Z,70.00
2017-08-16T06:55:53.648Z,70.30
2017-08-16T06:57:54.712Z,70.40
2017-08-16T06:59:55.665Z,70.60
2017-08-16T07:01:56.644Z,70.50
2017-08-16T07:03:57.580Z,70.60
2017-08-16T07:05:58.531Z,69.40
2017-08-16T07:07:59.477Z,70.20
2017-08-16T07:10:00.417Z,69.80
2017-08-16T07:12:01.353Z,70.40
2017-08-16T07:14:02.325Z,69.80
2017-08-16T07:16:04.033Z,69.20
2017-08-16T07:18:04.972Z,69.20
2017-08-16T07:20:05.913Z,68.70
2017-08-16T07:22:06.841Z,68.50
2017-08-16T07:24:07.784Z,68.90
2017-08-16T07:26:08.717Z,68.50
2017-08-16T07:28:09.656Z,68.80
2017-08-16T07:30:10.581Z,68.10
2017-08-16T07:32:11.517Z,67.50
2017-08-16T07:34:12.457Z,66.60
2017-08-16T07:36:13.385Z,67.60
2017-08-16T07:38:14.353Z,66.70
2017-08-16T07:40:15.281Z,66.30
2017-08-16T07:42:16.260Z,66.70
2017-08-16T07:44:17.735Z,65.60
2017-08-16T07:46:18.817Z,66.20
2017-08-16T07:48:20.501Z,65.70
2017-08-16T07:50:21.485Z,65.80
2017-08-16T07:52:22.484Z,66.40
2017-08-16T07:54:23.486Z,65.90
2017-08-16T07:56:25.156Z,65.20
2017-08-16T07:58:26.101Z,65.20
2017-08-16T08:00:27.034Z,65.40
2017-08-16T08:02:27.981Z,65.40
2017-08-16T08:04:28.933Z,64.60
2017-08-16T08:06:29.860Z,64.00
2017-08-16T08:08:30.815Z,63.70
2017-08-16T08:10:31.748Z,63.20
2017-08-16T08:12:32.709Z,64.20
2017-08-16T08:14:33.658Z,63.40
2017-08-16T08:16:34.580Z,63.80
2017-08-16T08:18:35.524Z,64.80
2017-08-16T08:20:36.484Z,64.20
2017-08-16T08:22:37.432Z,65.00
2017-08-16T08:24:38.384Z,65.60
2017-08-16T08:26:39.320Z,65.10
2017-08-16T08:28:40.267Z,65.60
2017-08-16T08:30:41.202Z,64.90
2017-08-16T08:32:42.148Z,63.50
2017-08-16T08:34:43.102Z,64.40
2017-08-16T08:36:44.040Z,64.30
2017-08-16T08:38:44.979Z,63.00
2017-08-16T08:40:45.921Z,63.10
2017-08-16T08:42:47.616Z,64.20
2017-08-16T08:44:48.557Z,64.20
2017-08-16T08:46:49.508Z,63.80
2017-08-16T08:48:50.454Z,62.50
2017-08-16T08:50:51.404Z,62.90
2017-08-16T08:52:52.362Z,63.30
2017-08-16T08:54:53.345Z,63.80
2017-08-16T08:56:54.293Z,64.40
2017-08-16T08:58:55.237Z,63.70
2017-08-16T09:00:56.186Z,63.10
2017-08-16T09:02:57.872Z,63.00
2017-08-16T09:04:58.809Z,62.20
2017-08-16T09:07:06.709Z,63.60
2017-08-16T09:09:07.632Z,62.70
2017-08-16T09:11:08.577Z,60.70
2017-08-16T09:13:09.512Z,58.00
2017-08-16T09:15:10.444Z,57.80
2017-08-16T09:17:11.389Z,57.30
2017-08-16T09:19:12.336Z,54.90
2017-08-16T09:21:13.280Z,55.80
2017-08-16T09:23:14.231Z,56.30
2017-08-16T09:25:15.171Z,55.20
2017-08-16T09:27:16.109Z,53.60
2017-08-16T09:29:17.049Z,53.30
2017-08-16T09:31:18.048Z,52.50
2017-08-16T09:33:19.011Z,52.20
2017-08-16T09:35:19.956Z,53.00
2017-08-16T09:37:20.900Z,51.50
2017-08-16T09:39:21.825Z,50.30
2017-08-16T09:41:23.549Z,49.90
2017-08-16T09:43:24.611Z,48.90
2017-08-16T09:45:25.555Z,50.20
2017-08-16T09:47:26.494Z,48.40
2017-08-16T09:49:27.427Z,46.90
2017-08-16T09:51:28.356Z,47.60
2017-08-16T09:53:29.287Z,45.70
2017-08-16T09:55:30.214Z,46.50
2017-08-16T09:57:31.172Z,42.20
2017-08-16T09:59:32.853Z,43.10
2017-08-16T10:01:33.788Z,43.60
2017-08-16T10:03:34.724Z,41.60
2017-08-16T10:05:35.660Z,41.70
2017-08-16T10:07:36.596Z,44.00
2017-08-16T10:09:37.540Z,43.10
2017-08-16T10:11:38.645Z,41.80
2017-08-16T10:13:40.338Z,40.80
2017-08-16T10:15:41.280Z,40.60
2017-08-16T10:17:42.213Z,40.00
2017-08-16T10:19:43.180Z,40.80
2017-08-16T10:21:44.113Z,40.90
2017-08-16T10:23:45.062Z,40.50
2017-08-16T10:25:45.996Z,42.10
2017-08-16T10:27:46.942Z,38.50
2017-08-16T10:29:47.881Z,40.10
2017-08-16T10:31:49.557Z,38.20
2017-08-16T10:33:50.496Z,38.00
2017-08-16T10:35:51.441Z,38.30
2017-08-16T10:37:52.377Z,38.10
2017-08-16T10:39:53.324Z,37.10
2017-08-16T10:41:54.252Z,38.10
2017-08-16T10:43:55.197Z,37.20
2017-08-16T10:45:56.132Z,33.20
2017-08-16T10:47:57.066Z,35.20
2017-08-16T10:49:58.004Z,37.80
2017-08-16T10:51:58.944Z,34.20
2017-08-16T10:53:59.933Z,36.90
2017-08-16T10:56:01.616Z,38.20
2017-08-16T10:58:02.601Z,38.10
2017-08-16T11:00:03.537Z,39.20
2017-08-16T11:02:04.481Z,33.90
2017-08-16T11:04:06.169Z,34.60
2017-08-16T11:06:07.100Z,34.70
2017-08-16T11:08:08.038Z,34.60
2017-08-16T11:10:08.971Z,36.40
2017-08-16T11:12:09.897Z,36.30
2017-08-16T11:14:10.828Z,35.50
2017-08-16T11:16:12.501Z,36.50
2017-08-16T11:18:13.424Z,36.60
2017-08-16T11:20:14.392Z,35.40
2017-08-16T11:22:15.341Z,37.00
2017-08-16T11:24:16.279Z,35.20
2017-08-16T11:26:17.225Z,34.00
2017-08-16T11:28:18.158Z,33.30
2017-08-16T11:30:19.093Z,32.70
2017-08-16T11:32:20.254Z,32.90
2017-08-16T11:34:21.182Z,33.10
2017-08-16T11:36:22.129Z,31.80
2017-08-16T11:38:23.801Z,32.50
2017-08-16T11:40:24.733Z,31.80
2017-08-16T11:42:25.663Z,35.00
2017-08-16T11:44:27.345Z,33.20
2017-08-16T11:46:28.276Z,33.20
2017-08-16T11:48:29.227Z,33.70
2017-08-16T11:50:30.153Z,32.10
2017-08-16T11:52:31.104Z,32.50
2017-08-16T11:54:32.045Z,31.90
2017-08-16T11:56:32.984Z,32.80
2017-08-16T11:58:33.920Z,32.50
2017-08-16T12:00:34.976Z,29.90
2017-08-16T12:02:35.913Z,33.10
2017-08-16T12:04:36.841Z,34.30
2017-08-16T12:06:37.785Z,32.80
2017-08-16T12:08:39.464Z,32.90
2017-08-16T12:10:40.389Z,32.90
2017-08-16T12:12:42.069Z,31.90
2017-08-16T12:14:43.721Z,32.10
2017-08-16T12:16:44.657Z,32.60
2017-08-16T12:18:45.626Z,32.30
2017-08-16T12:20:46.564Z,34.90
2017-08-16T12:22:47.531Z,34.50
2017-08-16T12:24:49.209Z,32.40
2017-08-16T12:26:50.144Z,32.40
2017-08-16T12:28:51.076Z,33.00
2017-08-16T12:30:52.009Z,33.20
2017-08-16T12:32:52.960Z,32.30
2017-08-16T12:34:53.896Z,34.90
2017-08-16T12:36:54.837Z,33.40
2017-08-16T12:38:55.768Z,33.10
2017-08-16T12:40:56.704Z,31.90
2017-08-16T12:42:57.668Z,34.40
2017-08-16T12:44:58.600Z,33.70
2017-08-16T12:46:59.537Z,33.60
2017-08-16T12:49:00.484Z,33.60
2017-08-16T12:51:01.456Z,32.80
2017-08-16T12:53:02.408Z,29.90
2017-08-16T12:55:03.337Z,30.80
2017-08-16T12:57:04.292Z,29.60
2017-08-16T12:59:05.224Z,31.10
2017-08-16T13:01:06.180Z,32.90
2017-08-16T13:03:07.120Z,31.40
2017-08-16T13:05:08.050Z,31.80
2017-08-16T13:07:09.008Z,31.40
2017-08-16T13:09:09.945Z,33.00
2017-08-16T13:11:10.892Z,32.30
2017-08-16T13:13:12.584Z,34.40
2017-08-16T13:15:13.512Z,33.70
2017-08-16T13:17:14.498Z,32.10
2017-08-16T13:19:15.737Z,32.60
2017-08-16T13:21:16.679Z,31.70
2017-08-16T13:23:17.621Z,31.50
2017-08-16T13:25:19.312Z,30.60
2017-08-16T13:27:20.241Z,30.60
2017-08-16T13:29:21.176Z,32.90
2017-08-16T13:31:22.129Z,33.40
2017-08-16T13:33:23.056Z,34.20
2017-08-16T13:35:23.993Z,35.10
2017-08-16T13:37:24.932Z,33.50
2017-08-16T13:39:25.873Z,32.20
2017-08-16T13:41:26.836Z,30.90
2017-08-16T13:43:27.780Z,34.30
2017-08-16T13:45:28.720Z,32.60
2017-08-16T13:47:29.672Z,31.60
2017-08-16T13:49:31.536Z,31.80
2017-08-16T13:51:33.213Z,29.80
2017-08-16T13:53:34.144Z,29.80
2017-08-16T13:55:35.084Z,30.10
2017-08-16T13:57:36.013Z,30.50
2017-08-16T13:59:36.960Z,29.20
2017-08-16T14:01:37.908Z,30.10
2017-08-16T14:03:38.844Z,31.90
2017-08-16T14:05:39.941Z,30.40
2017-08-16T14:07:41.617Z,31.80
2017-08-16T14:09:42.549Z,31.80
2017-08-16T14:11:43.502Z,33.80
2017-08-16T14:13:44.452Z,29.90
2017-08-16T14:15:45.420Z,32.80
2017-08-16T14:17:46.349Z,29.80
2017-08-16T14:19:47.296Z,31.80
2017-08-16T14:21:48.426Z,32.70
2017-08-16T14:23:49.356Z,32.70
2017-08-16T14:25:50.308Z,32.00
2017-08-16T14:27:52.026Z,33.40
2017-08-16T14:29:52.976Z,33.10
2017-08-16T14:31:53.920Z,33.30
2017-08-16T14:33:54.861Z,34.20
2017-08-16T14:35:56.547Z,32.80
2017-08-16T14:37:57.485Z,33.10
2017-08-16T14:39:58.432Z,30.60
2017-08-16T14:41:59.368Z,32.20
2017-08-16T14:44:00.301Z,35.30
2017-08-16T14:46:08.212Z,33.90
2017-08-16T14:48:09.173Z,33.80
2017-08-16T14:50:13.560Z,34.50
2017-08-16T14:52:14.539Z,34.80
2017-08-16T14:54:16.215Z,34.40
2017-08-16T14:56:17.164Z,34.30
2017-08-16T14:58:18.113Z,34.60
2017-08-16T15:00:19.053Z,33.60
2017-08-16T15:02:20.009Z,38.00
2017-08-16T15:04:20.940Z,33.60
2017-08-16T15:06:21.880Z,37.20
2017-08-16T15:08:22.828Z,36.90
2017-08-16T15:10:23.793Z,35.40
2017-08-16T15:12:24.933Z,37.80
2017-08-16T15:14:25.895Z,38.10
2017-08-16T15:16:26.837Z,34.80
2017-08-16T15:18:27.788Z,36.40
2017-08-16T15:20:28.720Z,34.80
2017-08-16T15:22:29.644Z,35.40
2017-08-16T15:24:30.581Z,37.40
2017-08-16T15:26:31.517Z,35.70
2017-08-16T15:28:32.468Z,35.90
2017-08-16T15:30:33.396Z,36.60
2017-08-16T15:32:34.332Z,34.00
2017-08-16T15:34:35.277Z,34.60
2017-08-16T15:36:36.218Z,38.30
2017-08-16T15:38:37.164Z,38.20
2017-08-16T15:40:38.097Z,35.20
2017-08-16T15:42:39.024Z,36.90
2017-08-16T15:44:40.200Z,35.50
2017-08-16T15:46:41.144Z,34.80
2017-08-16T15:48:42.097Z,36.00
2017-08-16T15:50:43.024Z,35.40
2017-08-16T15:52:43.948Z,37.80
2017-08-16T15:54:44.901Z,40.10
2017-08-16T15:56:45.831Z,40.40
2017-08-16T15:58:46.757Z,42.00
2017-08-16T16:00:47.729Z,40.40
2017-08-16T16:02:48.661Z,40.70
2017-08-16T16:04:49.611Z,39.90
2017-08-16T16:06:50.561Z,39.70
2017-08-16T16:08:51.504Z,40.20
2017-08-16T16:10:52.456Z,39.80
2017-08-16T16:12:54.139Z,41.20
2017-08-16T16:14:55.172Z,41.20
2017-08-16T16:16:56.108Z,40.60
2017-08-16T16:18:57.049Z,39.60
2017-08-16T16:20:57.994Z,39.10
2017-08-16T16:22:58.938Z,39.70
2017-08-16T16:24:59.880Z,40.50
2017-08-16T16:27:00.820Z,41.90
2017-08-16T16:29:01.843Z,38.10
2017-08-16T16:31:02.775Z,39.30
2017-08-16T16:33:03.821Z,40.50
2017-08-16T16:35:04.747Z,40.10
2017-08-16T16:37:05.677Z,41.10
2017-08-16T16:39:06.604Z,43.20
2017-08-16T16:41:07.541Z,42.70
2017-08-16T16:43:08.476Z,41.10
2017-08-16T16:45:09.421Z,41.40
2017-08-16T16:47:10.360Z,42.90
2017-08-16T16:49:11.299Z,42.30
2017-08-16T16:51:12.248Z,41.10
2017-08-16T16:53:13.193Z,41.00
2017-08-16T16:55:14.921Z,43.60
2017-08-16T16:57:15.867Z,42.30
2017-08-16T16:59:16.802Z,43.10
2017-08-16T17:01:17.752Z,43.80
2017-08-16T17:03:18.685Z,42.10
2017-08-16T17:05:19.633Z,43.10
2017-08-16T17:07:20.572Z,42.70
2017-08-16T17:09:21.512Z,44.10
2017-08-16T17:11:22.453Z,41.60
2017-08-16T17:13:24.149Z,41.90
2017-08-16T17:15:25.103Z,41.80
2017-08-16T17:17:26.042Z,43.90
2017-08-16T17:19:27.100Z,43.70
2017-08-16T17:21:28.044Z,43.40
2017-08-16T17:23:28.980Z,42.60
2017-08-16T17:25:29.911Z,45.00
2017-08-16T17:27:30.871Z,45.70
2017-08-16T17:29:32.637Z,44.30
2017-08-16T17:31:33.620Z,44.20
2017-08-16T17:33:34.568Z,43.80
2017-08-16T17:35:35.501Z,45.20
2017-08-16T17:37:36.440Z,46.40
2017-08-16T17:39:37.380Z,44.20
2017-08-16T17:41:38.325Z,47.00
2017-08-16T17:43:40.012Z,46.80
2017-08-16T17:45:40.940Z,46.40
2017-08-16T17:47:41.900Z,47.20
2017-08-16T17:49:42.828Z,44.70
2017-08-16T17:51:43.790Z,46.00
2017-08-16T17:53:44.739Z,45.90
2017-08-16T17:55:45.680Z,47.00
2017-08-16T17:57:46.737Z,47.70
2017-08-16T17:59:48.493Z,46.40
2017-08-16T18:01:50.172Z,47.10
2017-08-16T18:03:51.142Z,47.10
2017-08-16T18:05:52.077Z,47.10
2017-08-16T18:07:53.026Z,47.20
2017-08-16T18:09:53.968Z,48.10
2017-08-16T18:11:54.896Z,49.30
2017-08-16T18:13:55.836Z,48.00
2017-08-16T18:15:56.773Z,48.10
2017-08-16T18:17:57.707Z,48.70
2017-08-16T18:19:58.649Z,50.20
2017-08-16T18:22:00.355Z,48.20
2017-08-16T18:24:01.317Z,48.30
2017-08-16T18:26:02.260Z,49.60
2017-08-16T18:28:03.192Z,49.60
2017-08-16T18:30:04.901Z,52.40
2017-08-16T18:32:05.844Z,51.70
2017-08-16T18:34:06.846Z,50.00
2017-08-16T18:36:08.552Z,52.10
2017-08-16T18:38:09.499Z,52.10
2017-08-16T18:40:10.468Z,52.70
2017-08-16T18:42:12.205Z,54.30
2017-08-16T18:44:13.160Z,54.30
2017-08-16T18:46:14.841Z,55.00
2017-08-16T18:48:15.926Z,54.90
2017-08-16T18:50:16.872Z,55.40
2017-08-16T18:52:17.816Z,55.80
2017-08-16T18:54:19.549Z,54.80
2017-08-16T18:56:20.488Z,54.80
2017-08-16T18:58:21.484Z,56.40
2017-08-16T19:00:22.464Z,56.00
2017-08-16T19:02:23.416Z,55.10
2017-08-16T19:04:24.581Z,55.60
2017-08-16T19:06:25.604Z,56.10
2017-08-16T19:08:26.597Z,55.70
2017-08-16T19:10:27.553Z,55.40
2017-08-16T19:12:28.499Z,56.00
2017-08-16T19:14:29.504Z,56.50
2017-08-16T19:16:30.458Z,56.40
2017-08-16T19:18:31.528Z,56.20
2017-08-16T19:20:32.539Z,56.70
2017-08-16T19:22:33.698Z,56.00
2017-08-16T19:24:34.720Z,56.20
2017-08-16T19:26:35.774Z,55.80
2017-08-16T19:28:36.783Z,55.80
2017-08-16T19:30:37.764Z,56.60
2017-08-16T19:32:38.705Z,57.00
2017-08-16T19:34:39.642Z,57.90
2017-08-16T19:36:40.685Z,58.00
2017-08-16T19:38:41.622Z,57.40
2017-08-16T19:40:42.565Z,58.00
2017-08-16T19:42:43.500Z,58.00
2017-08-16T19:44:44.458Z,57.80
2017-08-16T19:46:45.512Z,57.90
2017-08-16T19:48:46.470Z,57.90
2017-08-16T19:50:47.496Z,58.70
2017-08-16T19:52:49.241Z,58.50
2017-08-16T19:54:50.189Z,58.50
2017-08-16T19:56:51.876Z,57.90
2017-08-16T19:58:52.905Z,57.80
2017-08-16T20:00:53.841Z,57.60
2017-08-16T20:02:54.857Z,57.80
2017-08-16T20:04:56.617Z,57.70
2017-08-16T20:06:57.784Z,57.70
2017-08-16T20:08:58.713Z,57.70
2017-08-16T20:10:59.672Z,57.90
2017-08-16T20:13:00.612Z,57.60
2017-08-16T20:15:01.599Z,57.40
2017-08-16T20:17:02.577Z,57.30
2017-08-16T20:19:03.884Z,57.30
2017-08-16T20:21:05.033Z,57.40
2017-08-16T20:23:06.077Z,57.10
2017-08-16T20:25:07.029Z,57.30
2017-08-16T20:27:08.020Z,57.40
2017-08-16T20:29:08.962Z,58.70
2017-08-16T20:31:09.898Z,58.40
2017-08-16T20:33:10.833Z,58.60
2017-08-16T20:35:11.781Z,58.80
2017-08-16T20:37:12.717Z,58.70
2017-08-16T20:39:13.656Z,58.90
2017-08-16T20:41:14.629Z,58.90
2017-08-16T20:43:15.581Z,59.50
2017-08-16T20:45:16.524Z,59.30
2017-08-16T20:47:17.628Z,58.90
2017-08-16T20:49:18.605Z,59.60
2017-08-16T20:51:20.276Z,58.80
2017-08-16T20:53:21.210Z,59.40
2017-08-16T20:55:22.145Z,58.80
2017-08-16T20:57:23.084Z,58.80
2017-08-16T20:59:24.036Z,59.40
2017-08-16T21:01:24.964Z,59.60
2017-08-16T21:16:03.031Z,60.00
2017-08-16T21:18:04.712Z,60.50
2017-08-16T21:20:05.658Z,60.40
2017-08-16T21:22:06.615Z,60.70
2017-08-16T21:24:07.568Z,60.80
2017-08-16T21:26:08.504Z,59.80
2017-08-16T21:28:09.466Z,60.00
2017-08-16T21:30:10.413Z,59.90
2017-08-16T21:32:11.358Z,60.00
2017-08-16T21:34:12.325Z,60.50
2017-08-16T21:36:13.273Z,60.10
2017-08-16T21:38:14.215Z,60.70
2017-08-16T21:40:15.176Z,60.80
2017-08-16T21:42:16.888Z,60.90
2017-08-16T21:44:17.862Z,60.90
2017-08-16T21:46:19.537Z,60.10
2017-08-16T21:48:20.484Z,60.10
2017-08-16T21:50:21.460Z,59.90
2017-08-16T21:52:22.414Z,60.70
2017-08-16T21:54:23.384Z,59.70
2017-08-16T21:56:24.616Z,59.60
2017-08-16T21:58:25.562Z,60.10
2017-08-16T22:00:26.522Z,60.10
2017-08-16T22:02:27.474Z,61.40
2017-08-16T22:04:28.431Z,60.90
2017-08-16T22:06:30.114Z,61.00
2017-08-16T22:08:31.069Z,60.20
2017-08-16T22:10:32.032Z,60.60
2017-08-16T22:12:32.980Z,60.60
2017-08-16T22:14:34.665Z,60.60
2017-08-16T22:16:35.621Z,60.60
2017-08-16T22:18:36.574Z,60.60
2017-08-16T22:20:37.520Z,60.60
2017-08-16T22:22:38.476Z,60.60
2017-08-16T22:24:40.162Z,60.90
2017-08-16T22:26:41.116Z,60.70
2017-08-16T22:28:42.044Z,61.30
2017-08-16T22:30:42.992Z,61.40
2017-08-16T22:32:43.937Z,61.70
2017-08-16T22:34:44.873Z,62.00
2017-08-16T22:36:45.832Z,62.50
2017-08-16T22:38:46.769Z,62.70
2017-08-16T22:40:47.716Z,62.90
2017-08-16T22:42:48.849Z,62.80
2017-08-16T22:44:49.791Z,62.90
2017-08-16T22:46:50.736Z,62.70
2017-08-16T22:48:52.412Z,62.10
2017-08-16T22:50:53.372Z,62.00
2017-08-16T22:52:54.332Z,62.40
2017-08-16T22:54:55.277Z,62.40
2017-08-16T22:56:56.249Z,62.30
2017-08-16T22:58:57.188Z,62.50
2017-08-16T23:00:58.129Z,62.30
2017-08-16T23:02:59.073Z,62.40
2017-08-16T23:05:00.008Z,62.70
2017-08-16T23:07:00.948Z,62.90
2017-08-16T23:09:01.928Z,62.50
2017-08-16T23:11:03.624Z,62.90
2017-08-16T23:13:04.621Z,62.80
2017-08-16T23:15:06.316Z,63.90
2017-08-16T23:17:07.268Z,63.50
2017-08-16T23:19:08.209Z,63.60
2017-08-16T23:21:09.181Z,63.60
2017-08-16T23:23:10.876Z,63.10
2017-08-16T23:25:11.811Z,63.10
2017-08-16T23:27:12.769Z,63.10
2017-08-16T23:29:13.719Z,63.30
2017-08-16T23:31:14.644Z,63.10
2017-08-16T23:33:15.612Z,63.50
2017-08-16T23:35:17.313Z,64.20
2017-08-16T23:37:18.248Z,63.40
2017-08-16T23:39:19.190Z,63.80
2017-08-16T23:41:20.124Z,63.50
2017-08-16T23:43:36.196Z,63.40
2017-08-16T23:45:37.229Z,63.30
2017-08-16T23:47:38.175Z,63.30
2017-08-16T23:49:39.121Z,63.50
2017-08-16T23:51:40.064Z,63.80
2017-08-16T23:53:41.000Z,63.50
2017-08-16T23:55:41.950Z,63.40
2017-08-16T23:57:42.893Z,63.60
2017-08-16T23:59:43.855Z,63.50
